sensor_id;sensor_type;location;lat;lon;timestamp;pressure;altitude;pressure_sealevel;temperature;humidity
20955;BME280;10636;19.390;-99.256;2023-01-26T00:01:30;77659.34;;;24.73;27.05
20955;BME280;10636;19.390;-99.256;2023-01-26T00:03:59;77664.69;;;24.73;27.15
20955;BME280;10636;19.390;-99.256;2023-01-26T00:06:28;77669.34;;;24.73;26.96
20955;BME280;10636;19.390;-99.256;2023-01-26T00:08:56;77669.97;;;24.71;27.39
20955;BME280;10636;19.390;-99.256;2023-01-26T00:11:27;77672.66;;;24.71;27.55
20955;BME280;10636;19.390;-99.256;2023-01-26T00:13:58;77673.97;;;24.70;27.45
20955;BME280;10636;19.390;-99.256;2023-01-26T00:16:27;77681.31;;;24.70;28.22
20955;BME280;10636;19.390;-99.256;2023-01-26T00:18:56;77675.28;;;24.69;27.66
20955;BME280;10636;19.390;-99.256;2023-01-26T00:21:24;77679.28;;;24.68;27.77
20955;BME280;10636;19.390;-99.256;2023-01-26T00:23:53;77685.19;;;24.65;28.18
20955;BME280;10636;19.390;-99.256;2023-01-26T00:26:27;77675.06;;;24.63;28.80
20955;BME280;10636;19.390;-99.256;2023-01-26T00:28:55;77677.63;;;24.59;28.48
20955;BME280;10636;19.390;-99.256;2023-01-26T00:31:25;77682.28;;;24.59;28.50
20955;BME280;10636;19.390;-99.256;2023-01-26T00:33:55;77687.03;;;24.60;28.64
20955;BME280;10636;19.390;-99.256;2023-01-26T00:36:24;77691.69;;;24.60;28.63
20955;BME280;10636;19.390;-99.256;2023-01-26T00:38:52;77690.34;;;24.59;28.83
20955;BME280;10636;19.390;-99.256;2023-01-26T00:41:21;77691.03;;;24.59;28.70
20955;BME280;10636;19.390;-99.256;2023-01-26T00:44:08;77684.97;;;24.59;28.90
20955;BME280;10636;19.390;-99.256;2023-01-26T00:46:37;77688.34;;;24.59;29.49
20955;BME280;10636;19.390;-99.256;2023-01-26T00:49:05;77690.94;;;24.57;29.88
20955;BME280;10636;19.390;-99.256;2023-01-26T00:51:34;77694.94;;;24.56;29.59
20955;BME280;10636;19.390;-99.256;2023-01-26T00:54:02;77707.59;;;24.54;29.40
20955;BME280;10636;19.390;-99.256;2023-01-26T00:56:31;77706.22;;;24.52;29.37
20955;BME280;10636;19.390;-99.256;2023-01-26T00:59:00;77706.91;;;24.53;30.06
20955;BME280;10636;19.390;-99.256;2023-01-26T01:01:37;77708.13;;;24.50;29.67
20955;BME280;10636;19.390;-99.256;2023-01-26T01:04:05;77723.53;;;24.49;29.91
20955;BME280;10636;19.390;-99.256;2023-01-26T01:06:34;77720.09;;;24.47;30.18
20955;BME280;10636;19.390;-99.256;2023-01-26T01:09:06;77729.41;;;24.46;30.26
20955;BME280;10636;19.390;-99.256;2023-01-26T01:11:35;77729.41;;;24.46;30.22
20955;BME280;10636;19.390;-99.256;2023-01-26T01:14:03;77734.09;;;24.45;30.49
20955;BME280;10636;19.390;-99.256;2023-01-26T01:16:40;77742.75;;;24.44;30.24
20955;BME280;10636;19.390;-99.256;2023-01-26T01:19:22;77741.91;;;24.39;30.52
20955;BME280;10636;19.390;-99.256;2023-01-26T01:21:56;77747.91;;;24.38;30.42
20955;BME280;10636;19.390;-99.256;2023-01-26T01:24:30;77759.94;;;24.37;30.50
20955;BME280;10636;19.390;-99.256;2023-01-26T01:27:00;77762.50;;;24.35;30.48
20955;BME280;10636;19.390;-99.256;2023-01-26T01:29:32;77769.16;;;24.34;30.52
20955;BME280;10636;19.390;-99.256;2023-01-26T01:32:07;77775.84;;;24.33;30.82
20955;BME280;10636;19.390;-99.256;2023-01-26T01:34:36;77779.81;;;24.32;30.65
20955;BME280;10636;19.390;-99.256;2023-01-26T01:37:05;77767.59;;;24.26;30.70
20955;BME280;10636;19.390;-99.256;2023-01-26T01:39:33;77780.19;;;24.24;30.77
20955;BME280;10636;19.390;-99.256;2023-01-26T01:42:04;77778.13;;;24.22;30.67
20955;BME280;10636;19.390;-99.256;2023-01-26T01:48:03;77798.13;;;24.19;30.46
20955;BME280;10636;19.390;-99.256;2023-01-26T01:50:36;77796.06;;;24.18;31.04
20955;BME280;10636;19.390;-99.256;2023-01-26T01:53:07;77799.41;;;24.18;30.78
20955;BME280;10636;19.390;-99.256;2023-01-26T01:55:52;77802.03;;;24.16;31.32
20955;BME280;10636;19.390;-99.256;2023-01-26T01:58:21;77803.34;;;24.15;31.19
20955;BME280;10636;19.390;-99.256;2023-01-26T02:00:50;77803.09;;;24.09;30.94
20955;BME280;10636;19.390;-99.256;2023-01-26T02:03:21;77798.56;;;24.14;30.72
20955;BME280;10636;19.390;-99.256;2023-01-26T02:05:55;77807.41;;;24.16;31.40
20955;BME280;10636;19.390;-99.256;2023-01-26T02:08:31;77814.06;;;24.15;31.51
20955;BME280;10636;19.390;-99.256;2023-01-26T02:11:11;77811.22;;;24.11;31.03
20955;BME280;10636;19.390;-99.256;2023-01-26T02:13:57;77826.06;;;24.14;31.50
20955;BME280;10636;19.390;-99.256;2023-01-26T02:16:27;77825.47;;;24.16;31.20
20955;BME280;10636;19.390;-99.256;2023-01-26T02:19:04;77827.47;;;24.15;31.38
20955;BME280;10636;19.390;-99.256;2023-01-26T02:21:36;77824.63;;;24.11;31.56
20955;BME280;10636;19.390;-99.256;2023-01-26T02:24:11;77830.13;;;24.15;31.13
20955;BME280;10636;19.390;-99.256;2023-01-26T02:26:44;77840.84;;;24.15;31.21
20955;BME280;10636;19.390;-99.256;2023-01-26T02:29:13;77839.53;;;24.16;31.36
20955;BME280;10636;19.390;-99.256;2023-01-26T02:31:42;77846.22;;;24.15;31.89
20955;BME280;10636;19.390;-99.256;2023-01-26T02:34:11;77854.25;;;24.15;31.59
20955;BME280;10636;19.390;-99.256;2023-01-26T02:36:39;77855.53;;;24.14;31.07
20955;BME280;10636;19.390;-99.256;2023-01-26T02:39:25;77858.06;;;24.10;31.81
20955;BME280;10636;19.390;-99.256;2023-01-26T02:41:59;77860.88;;;24.14;31.02
20955;BME280;10636;19.390;-99.256;2023-01-26T02:44:44;77860.13;;;24.12;31.09
20955;BME280;10636;19.390;-99.256;2023-01-26T02:47:14;77870.31;;;24.15;31.17
20955;BME280;10636;19.390;-99.256;2023-01-26T02:49:43;77873.00;;;24.15;31.34
20955;BME280;10636;19.390;-99.256;2023-01-26T02:52:17;77873.59;;;24.14;30.78
20955;BME280;10636;19.390;-99.256;2023-01-26T02:54:46;77873.59;;;24.14;30.88
20955;BME280;10636;19.390;-99.256;2023-01-26T02:57:33;77889.00;;;24.13;31.41
20955;BME280;10636;19.390;-99.256;2023-01-26T03:00:02;77887.53;;;24.10;31.26
20955;BME280;10636;19.390;-99.256;2023-01-26T03:02:31;77893.50;;;24.09;31.18
20955;BME280;10636;19.390;-99.256;2023-01-26T03:05:00;77887.38;;;24.06;30.51
20955;BME280;10636;19.390;-99.256;2023-01-26T03:07:30;77902.78;;;24.06;31.35
20955;BME280;10636;19.390;-99.256;2023-01-26T03:09:58;77905.44;;;24.06;30.86
20955;BME280;10636;19.390;-99.256;2023-01-26T03:12:27;77900.78;;;24.06;30.79
20955;BME280;10636;19.390;-99.256;2023-01-26T03:14:57;77910.13;;;24.05;30.58
20955;BME280;10636;19.390;-99.256;2023-01-26T03:17:42;77908.13;;;24.06;31.24
20955;BME280;10636;19.390;-99.256;2023-01-26T03:20:11;77914.06;;;24.04;30.63
20955;BME280;10636;19.390;-99.256;2023-01-26T03:22:56;77916.69;;;24.02;30.51
20955;BME280;10636;19.390;-99.256;2023-01-26T03:25:56;77934.75;;;24.02;31.40
20955;BME280;10636;19.390;-99.256;2023-01-26T03:28:41;77931.28;;;23.99;30.66
20955;BME280;10636;19.390;-99.256;2023-01-26T03:31:11;77933.97;;;23.99;30.85
20955;BME280;10636;19.390;-99.256;2023-01-26T03:33:40;77943.31;;;23.98;31.02
20955;BME280;10636;19.390;-99.256;2023-01-26T03:36:08;77946.59;;;23.96;30.74
20955;BME280;10636;19.390;-99.256;2023-01-26T03:38:37;77949.91;;;23.95;31.46
20955;BME280;10636;19.390;-99.256;2023-01-26T03:41:06;77956.47;;;23.92;31.56
20955;BME280;10636;19.390;-99.256;2023-01-26T03:43:51;77955.75;;;23.91;31.00
20955;BME280;10636;19.390;-99.256;2023-01-26T03:46:46;77960.44;;;23.91;31.61
20955;BME280;10636;19.390;-99.256;2023-01-26T03:49:31;77964.41;;;23.90;31.16
20955;BME280;10636;19.390;-99.256;2023-01-26T03:52:17;77970.97;;;23.87;31.62
20955;BME280;10636;19.390;-99.256;2023-01-26T03:55:03;77971.06;;;23.89;31.48
20955;BME280;10636;19.390;-99.256;2023-01-26T03:57:48;77983.06;;;23.88;31.66
20955;BME280;10636;19.390;-99.256;2023-01-26T04:00:17;77974.28;;;23.85;31.49
20955;BME280;10636;19.390;-99.256;2023-01-26T04:02:48;77981.69;;;23.87;31.50
20955;BME280;10636;19.390;-99.256;2023-01-26T04:05:35;77984.28;;;23.85;31.58
20955;BME280;10636;19.390;-99.256;2023-01-26T04:08:20;77988.97;;;23.84;31.06
20955;BME280;10636;19.390;-99.256;2023-01-26T04:10:50;77989.03;;;23.86;31.09
20955;BME280;10636;19.390;-99.256;2023-01-26T04:13:19;77987.06;;;23.87;31.74
20955;BME280;10636;19.390;-99.256;2023-01-26T04:16:05;77989.81;;;23.89;31.50
20955;BME280;10636;19.390;-99.256;2023-01-26T04:18:53;77985.22;;;23.91;31.21
20955;BME280;10636;19.390;-99.256;2023-01-26T04:21:38;77985.91;;;23.92;31.42
20955;BME280;10636;19.390;-99.256;2023-01-26T04:24:07;77985.84;;;23.90;31.25
20955;BME280;10636;19.390;-99.256;2023-01-26T04:26:40;77989.91;;;23.91;32.05
20955;BME280;10636;19.390;-99.256;2023-01-26T04:29:11;77983.16;;;23.90;31.99
20955;BME280;10636;19.390;-99.256;2023-01-26T04:31:41;77993.25;;;23.91;31.63
20955;BME280;10636;19.390;-99.256;2023-01-26T04:34:14;77995.25;;;23.91;31.42
20955;BME280;10636;19.390;-99.256;2023-01-26T04:36:43;77990.97;;;23.84;32.06
20955;BME280;10636;19.390;-99.256;2023-01-26T04:39:11;77998.63;;;23.91;31.45
20955;BME280;10636;19.390;-99.256;2023-01-26T04:41:40;78001.91;;;23.90;32.27
20955;BME280;10636;19.390;-99.256;2023-01-26T04:44:08;77993.78;;;23.88;32.19
20955;BME280;10636;19.390;-99.256;2023-01-26T04:46:37;77988.44;;;23.88;32.16
20955;BME280;10636;19.390;-99.256;2023-01-26T04:49:06;77993.09;;;23.87;32.27
20955;BME280;10636;19.390;-99.256;2023-01-26T04:51:37;77992.50;;;23.89;32.28
20955;BME280;10636;19.390;-99.256;2023-01-26T04:54:06;77987.72;;;23.87;31.60
20955;BME280;10636;19.390;-99.256;2023-01-26T04:56:34;77987.06;;;23.87;31.77
20955;BME280;10636;19.390;-99.256;2023-01-26T04:59:06;77983.06;;;23.88;32.27
20955;BME280;10636;19.390;-99.256;2023-01-26T05:01:35;77983.59;;;23.84;31.66
20955;BME280;10636;19.390;-99.256;2023-01-26T05:04:04;77993.03;;;23.85;32.26
20955;BME280;10636;19.390;-99.256;2023-01-26T05:06:33;77984.28;;;23.85;31.65
20955;BME280;10636;19.390;-99.256;2023-01-26T05:09:03;77989.56;;;23.83;31.50
20955;BME280;10636;19.390;-99.256;2023-01-26T05:11:32;77996.22;;;23.82;31.84
20955;BME280;10636;19.390;-99.256;2023-01-26T05:14:01;77990.78;;;23.80;32.28
20955;BME280;10636;19.390;-99.256;2023-01-26T05:16:30;77992.09;;;23.79;31.65
20955;BME280;10636;19.390;-99.256;2023-01-26T05:18:59;77990.00;;;23.77;32.30
20955;BME280;10636;19.390;-99.256;2023-01-26T05:21:27;77993.28;;;23.76;31.50
20955;BME280;10636;19.390;-99.256;2023-01-26T05:23:56;77991.91;;;23.74;32.24
20955;BME280;10636;19.390;-99.256;2023-01-26T05:26:26;77994.59;;;23.74;32.19
20955;BME280;10636;19.390;-99.256;2023-01-26T05:28:54;77990.53;;;23.73;31.90
20955;BME280;10636;19.390;-99.256;2023-01-26T05:31:23;77991.03;;;23.70;31.48
20955;BME280;10636;19.390;-99.256;2023-01-26T05:33:52;77989.06;;;23.70;32.22
20955;BME280;10636;19.390;-99.256;2023-01-26T05:36:20;77994.34;;;23.68;32.26
20955;BME280;10636;19.390;-99.256;2023-01-26T05:38:49;77996.31;;;23.68;31.38
20955;BME280;10636;19.390;-99.256;2023-01-26T05:41:17;77991.66;;;23.68;31.60
20955;BME280;10636;19.390;-99.256;2023-01-26T05:43:47;77998.28;;;23.67;31.60
20955;BME280;10636;19.390;-99.256;2023-01-26T05:46:16;77991.56;;;23.66;32.16
20955;BME280;10636;19.390;-99.256;2023-01-26T05:48:45;77998.91;;;23.66;32.26
20955;BME280;10636;19.390;-99.256;2023-01-26T05:51:13;77980.09;;;23.64;31.39
20955;BME280;10636;19.390;-99.256;2023-01-26T05:53:42;77985.44;;;23.64;31.87
20955;BME280;10636;19.390;-99.256;2023-01-26T05:56:10;77989.41;;;23.63;32.21
20955;BME280;10636;19.390;-99.256;2023-01-26T05:58:39;77987.31;;;23.61;32.08
20955;BME280;10636;19.390;-99.256;2023-01-26T06:01:09;77984.53;;;23.59;31.88
20955;BME280;10636;19.390;-99.256;2023-01-26T06:03:38;77985.94;;;23.60;31.92
20955;BME280;10636;19.390;-99.256;2023-01-26T06:06:06;77987.91;;;23.60;31.95
20955;BME280;10636;19.390;-99.256;2023-01-26T06:08:35;77991.28;;;23.60;32.32
20955;BME280;10636;19.390;-99.256;2023-01-26T06:11:04;77985.94;;;23.60;31.79
20955;BME280;10636;19.390;-99.256;2023-01-26T06:13:32;77988.53;;;23.58;31.55
20955;BME280;10636;19.390;-99.256;2023-01-26T06:16:01;77985.75;;;23.56;32.00
20955;BME280;10636;19.390;-99.256;2023-01-26T06:18:31;77977.63;;;23.54;31.78
20955;BME280;10636;19.390;-99.256;2023-01-26T06:21:00;77975.56;;;23.53;31.48
20955;BME280;10636;19.390;-99.256;2023-01-26T06:23:29;77981.50;;;23.51;31.47
20955;BME280;10636;19.390;-99.256;2023-01-26T06:26:01;77980.13;;;23.50;32.12
20955;BME280;10636;19.390;-99.256;2023-01-26T06:28:31;77983.44;;;23.48;31.32
20955;BME280;10636;19.390;-99.256;2023-01-26T06:31:02;77978.75;;;23.49;31.90
20955;BME280;10636;19.390;-99.256;2023-01-26T06:33:35;77975.31;;;23.46;31.49
20955;BME280;10636;19.390;-99.256;2023-01-26T06:36:06;77981.38;;;23.47;31.91
20955;BME280;10636;19.390;-99.256;2023-01-26T06:38:35;77976.59;;;23.45;31.24
20955;BME280;10636;19.390;-99.256;2023-01-26T06:41:05;77979.88;;;23.44;32.14
20955;BME280;10636;19.390;-99.256;2023-01-26T06:43:35;77973.22;;;23.45;31.41
20955;BME280;10636;19.390;-99.256;2023-01-26T06:46:18;77981.25;;;23.45;31.35
20955;BME280;10636;19.390;-99.256;2023-01-26T06:48:48;77977.22;;;23.44;31.35
20955;BME280;10636;19.390;-99.256;2023-01-26T06:51:37;77973.06;;;23.41;31.63
20955;BME280;10636;19.390;-99.256;2023-01-26T06:54:09;77975.84;;;23.43;32.09
20955;BME280;10636;19.390;-99.256;2023-01-26T06:56:38;77967.63;;;23.39;32.07
20955;BME280;10636;19.390;-99.256;2023-01-26T06:59:07;77974.28;;;23.38;31.34
20955;BME280;10636;19.390;-99.256;2023-01-26T07:01:38;77975.47;;;23.35;32.08
20955;BME280;10636;19.390;-99.256;2023-01-26T07:04:08;77968.81;;;23.36;31.18
20955;BME280;10636;19.390;-99.256;2023-01-26T07:06:37;77979.53;;;23.36;31.18
20955;BME280;10636;19.390;-99.256;2023-01-26T07:09:06;77976.16;;;23.35;31.60
20955;BME280;10636;19.390;-99.256;2023-01-26T07:11:34;77975.47;;;23.35;31.41
20955;BME280;10636;19.390;-99.256;2023-01-26T07:14:03;77974.09;;;23.34;31.33
20955;BME280;10636;19.390;-99.256;2023-01-26T07:16:32;77976.09;;;23.33;32.16
20955;BME280;10636;19.390;-99.256;2023-01-26T07:19:00;77974.59;;;23.30;31.37
20955;BME280;10636;19.390;-99.256;2023-01-26T07:21:31;77985.41;;;23.32;31.94
20955;BME280;10636;19.390;-99.256;2023-01-26T07:24:00;77979.38;;;23.32;32.06
20955;BME280;10636;19.390;-99.256;2023-01-26T07:26:29;77978.00;;;23.31;31.37
20955;BME280;10636;19.390;-99.256;2023-01-26T07:28:58;77988.69;;;23.31;31.57
20955;BME280;10636;19.390;-99.256;2023-01-26T07:31:26;77981.88;;;23.28;31.91
20955;BME280;10636;19.390;-99.256;2023-01-26T07:33:55;77977.91;;;23.29;31.68
20955;BME280;10636;19.390;-99.256;2023-01-26T07:36:23;77972.53;;;23.29;31.64
20955;BME280;10636;19.390;-99.256;2023-01-26T07:38:54;77975.84;;;23.27;31.43
20955;BME280;10636;19.390;-99.256;2023-01-26T07:41:22;77968.41;;;23.26;31.52
20955;BME280;10636;19.390;-99.256;2023-01-26T07:43:51;77975.84;;;23.27;31.40
20955;BME280;10636;19.390;-99.256;2023-01-26T07:46:19;77966.94;;;23.22;31.52
20955;BME280;10636;19.390;-99.256;2023-01-26T07:48:49;77965.63;;;23.23;32.20
20955;BME280;10636;19.390;-99.256;2023-01-26T07:51:17;77964.25;;;23.22;32.04
20955;BME280;10636;19.390;-99.256;2023-01-26T07:53:46;77970.31;;;23.23;31.18
20955;BME280;10636;19.390;-99.256;2023-01-26T07:56:17;77967.53;;;23.21;31.17
20955;BME280;10636;19.390;-99.256;2023-01-26T07:58:49;77962.88;;;23.21;31.38
20955;BME280;10636;19.390;-99.256;2023-01-26T08:01:18;77970.91;;;23.21;31.71
20955;BME280;10636;19.390;-99.256;2023-01-26T08:03:49;77964.75;;;23.19;31.83
20955;BME280;10636;19.390;-99.256;2023-01-26T08:06:19;77964.25;;;23.22;31.47
20955;BME280;10636;19.390;-99.256;2023-01-26T08:08:48;77960.22;;;23.21;32.22
20955;BME280;10636;19.390;-99.256;2023-01-26T08:11:20;77954.69;;;23.17;31.87
20955;BME280;10636;19.390;-99.256;2023-01-26T08:13:51;77955.44;;;23.20;31.63
20955;BME280;10636;19.390;-99.256;2023-01-26T08:16:19;77945.28;;;23.16;32.19
20955;BME280;10636;19.390;-99.256;2023-01-26T08:18:48;77952.00;;;23.17;32.17
20955;BME280;10636;19.390;-99.256;2023-01-26T08:21:18;77945.28;;;23.16;31.46
20955;BME280;10636;19.390;-99.256;2023-01-26T08:23:48;77949.06;;;23.11;31.53
20955;BME280;10636;19.390;-99.256;2023-01-26T08:26:19;77947.84;;;23.14;31.72
20955;BME280;10636;19.390;-99.256;2023-01-26T08:28:48;77939.66;;;23.10;32.00
20955;BME280;10636;19.390;-99.256;2023-01-26T08:31:18;77947.09;;;23.12;31.58
20955;BME280;10636;19.390;-99.256;2023-01-26T08:33:47;77943.09;;;23.13;32.12
20955;BME280;10636;19.390;-99.256;2023-01-26T08:38:45;77925.44;;;23.06;31.50
20955;BME280;10636;19.390;-99.256;2023-01-26T08:41:14;77928.34;;;23.12;31.59
20955;BME280;10636;19.390;-99.256;2023-01-26T08:43:44;77933.00;;;23.11;32.24
20955;BME280;10636;19.390;-99.256;2023-01-26T08:46:13;77928.28;;;23.10;32.19
20955;BME280;10636;19.390;-99.256;2023-01-26T08:48:42;77936.31;;;23.10;32.25
20955;BME280;10636;19.390;-99.256;2023-01-26T08:51:10;77930.25;;;23.09;31.78
20955;BME280;10636;19.390;-99.256;2023-01-26T08:53:39;77932.06;;;23.05;31.96
20955;BME280;10636;19.390;-99.256;2023-01-26T08:56:10;77926.13;;;23.06;31.63
20955;BME280;10636;19.390;-99.256;2023-01-26T08:58:39;77930.09;;;23.05;32.08
20955;BME280;10636;19.390;-99.256;2023-01-26T09:01:11;77928.00;;;23.04;31.61
20955;BME280;10636;19.390;-99.256;2023-01-26T09:03:41;77928.59;;;23.02;32.17
20955;BME280;10636;19.390;-99.256;2023-01-26T09:06:11;77935.25;;;23.01;32.32
20955;BME280;10636;19.390;-99.256;2023-01-26T09:08:41;77929.22;;;23.01;31.74
20955;BME280;10636;19.390;-99.256;2023-01-26T09:11:10;77937.94;;;23.01;31.68
20955;BME280;10636;19.390;-99.256;2023-01-26T09:13:40;77923.69;;;22.96;31.63
20955;BME280;10636;19.390;-99.256;2023-01-26T09:16:14;77942.59;;;23.01;32.34
20955;BME280;10636;19.390;-99.256;2023-01-26T09:18:47;77936.56;;;23.00;31.89
20955;BME280;10636;19.390;-99.256;2023-01-26T09:21:19;77929.72;;;22.97;31.92
20955;BME280;10636;19.390;-99.256;2023-01-26T09:23:49;77937.84;;;22.99;31.70
20955;BME280;10636;19.390;-99.256;2023-01-26T09:26:17;77932.41;;;22.97;32.15
20955;BME280;10636;19.390;-99.256;2023-01-26T09:28:49;77938.25;;;22.93;32.34
20955;BME280;10636;19.390;-99.256;2023-01-26T09:31:20;77935.00;;;22.95;32.05
20955;BME280;10636;19.390;-99.256;2023-01-26T09:33:49;77935.50;;;22.91;31.49
20955;BME280;10636;19.390;-99.256;2023-01-26T09:36:18;77943.53;;;22.91;31.44
20955;BME280;10636;19.390;-99.256;2023-01-26T09:38:46;77944.31;;;22.94;32.45
20955;BME280;10636;19.390;-99.256;2023-01-26T09:41:28;77950.94;;;22.93;32.28
20955;BME280;10636;19.390;-99.256;2023-01-26T09:44:04;77942.84;;;22.91;31.90
20955;BME280;10636;19.390;-99.256;2023-01-26T09:46:43;77945.44;;;22.89;31.54
20955;BME280;10636;19.390;-99.256;2023-01-26T09:49:17;77948.78;;;22.89;32.15
20955;BME280;10636;19.390;-99.256;2023-01-26T09:51:51;77952.16;;;22.90;32.48
20955;BME280;10636;19.390;-99.256;2023-01-26T09:54:29;77949.47;;;22.90;31.75
20955;BME280;10636;19.390;-99.256;2023-01-26T09:57:00;77946.81;;;22.90;31.82
20955;BME280;10636;19.390;-99.256;2023-01-26T09:59:33;77945.13;;;22.83;31.96
20955;BME280;10636;19.390;-99.256;2023-01-26T10:02:19;77958.66;;;22.87;32.50
20955;BME280;10636;19.390;-99.256;2023-01-26T10:04:55;77957.28;;;22.86;32.47
20955;BME280;10636;19.390;-99.256;2023-01-26T10:07:25;77961.25;;;22.85;31.70
20955;BME280;10636;19.390;-99.256;2023-01-26T10:09:54;77957.91;;;22.84;32.47
20955;BME280;10636;19.390;-99.256;2023-01-26T10:12:26;77968.00;;;22.86;32.24
20955;BME280;10636;19.390;-99.256;2023-01-26T10:15:00;77961.25;;;22.85;31.58
20955;BME280;10636;19.390;-99.256;2023-01-26T10:17:33;77963.94;;;22.85;31.61
20955;BME280;10636;19.390;-99.256;2023-01-26T10:20:24;77963.94;;;22.85;32.46
20955;BME280;10636;19.390;-99.256;2023-01-26T10:22:59;77951.06;;;22.65;31.98
20955;BME280;10636;19.390;-99.256;2023-01-26T10:25:32;77971.78;;;22.81;31.98
20955;BME280;10636;19.390;-99.256;2023-01-26T10:28:08;77979.19;;;22.82;32.08
20955;BME280;10636;19.390;-99.256;2023-01-26T10:30:39;77975.06;;;22.79;32.56
20955;BME280;10636;19.390;-99.256;2023-01-26T10:33:15;77952.16;;;22.60;32.46
20955;BME280;10636;19.390;-99.256;2023-01-26T10:35:45;77989.00;;;22.78;32.53
20955;BME280;10636;19.390;-99.256;2023-01-26T10:38:38;77982.09;;;22.73;32.16
20955;BME280;10636;19.390;-99.256;2023-01-26T10:41:22;77980.91;;;22.76;31.75
20955;BME280;10636;19.390;-99.256;2023-01-26T10:43:52;77984.19;;;22.74;32.22
20955;BME280;10636;19.390;-99.256;2023-01-26T10:46:27;77984.09;;;22.72;32.09
20955;BME280;10636;19.390;-99.256;2023-01-26T10:48:59;77983.41;;;22.71;32.15
20955;BME280;10636;19.390;-99.256;2023-01-26T10:51:30;77984.69;;;22.70;31.75
20955;BME280;10636;19.390;-99.256;2023-01-26T10:54:30;77983.91;;;22.68;31.78
20955;BME280;10636;19.390;-99.256;2023-01-26T10:57:01;77994.00;;;22.69;32.41
20955;BME280;10636;19.390;-99.256;2023-01-26T10:59:32;77989.16;;;22.66;31.81
20955;BME280;10636;19.390;-99.256;2023-01-26T11:02:20;77986.69;;;22.70;31.98
20955;BME280;10636;19.390;-99.256;2023-01-26T11:05:14;77985.91;;;22.67;32.42
20955;BME280;10636;19.390;-99.256;2023-01-26T11:07:44;77989.16;;;22.66;31.95
20955;BME280;10636;19.390;-99.256;2023-01-26T11:10:19;77993.81;;;22.65;32.35
20955;BME280;10636;19.390;-99.256;2023-01-26T11:12:49;77993.13;;;22.65;32.06
20955;BME280;10636;19.390;-99.256;2023-01-26T11:15:20;78003.13;;;22.64;32.69
20955;BME280;10636;19.390;-99.256;2023-01-26T11:17:53;77999.09;;;22.63;32.17
20955;BME280;10636;19.390;-99.256;2023-01-26T11:20:43;78000.38;;;22.62;32.76
20955;BME280;10636;19.390;-99.256;2023-01-26T11:23:21;78005.72;;;22.62;32.50
20955;BME280;10636;19.390;-99.256;2023-01-26T11:29:05;78003.63;;;22.61;31.90
20955;BME280;10636;19.390;-99.256;2023-01-26T11:31:44;78005.63;;;22.60;32.75
20955;BME280;10636;19.390;-99.256;2023-01-26T11:34:25;78000.00;;;22.54;32.15
20955;BME280;10636;19.390;-99.256;2023-01-26T11:37:13;78007.41;;;22.56;32.31
20955;BME280;10636;19.390;-99.256;2023-01-26T11:39:52;78006.63;;;22.53;32.67
20955;BME280;10636;19.390;-99.256;2023-01-26T11:42:33;78014.66;;;22.53;32.84
20955;BME280;10636;19.390;-99.256;2023-01-26T11:45:20;78017.31;;;22.53;32.79
20955;BME280;10636;19.390;-99.256;2023-01-26T11:48:00;78019.88;;;22.51;32.69
20955;BME280;10636;19.390;-99.256;2023-01-26T11:50:38;78019.88;;;22.51;32.79
20955;BME280;10636;19.390;-99.256;2023-01-26T11:56:32;78022.56;;;22.51;32.97
20955;BME280;10636;19.390;-99.256;2023-01-26T11:59:05;78029.22;;;22.50;33.25
20955;BME280;10636;19.390;-99.256;2023-01-26T12:01:40;78016.25;;;22.44;33.01
20955;BME280;10636;19.390;-99.256;2023-01-26T12:04:17;78029.22;;;22.50;33.25
20955;BME280;10636;19.390;-99.256;2023-01-26T12:06:49;78019.13;;;22.49;32.97
20955;BME280;10636;19.390;-99.256;2023-01-26T12:09:24;78030.22;;;22.43;33.27
20955;BME280;10636;19.390;-99.256;2023-01-26T12:12:03;78023.22;;;22.36;33.28
20955;BME280;10636;19.390;-99.256;2023-01-26T12:14:37;78034.06;;;22.40;32.62
20955;BME280;10636;19.390;-99.256;2023-01-26T12:17:25;78035.28;;;22.37;32.93
20955;BME280;10636;19.390;-99.256;2023-01-26T12:20:00;78029.94;;;22.37;32.44
20955;BME280;10636;19.390;-99.256;2023-01-26T12:22:34;78032.69;;;22.39;32.70
20955;BME280;10636;19.390;-99.256;2023-01-26T12:25:15;78042.00;;;22.38;33.39
20955;BME280;10636;19.390;-99.256;2023-01-26T12:27:54;78037.16;;;22.34;32.51
20955;BME280;10636;19.390;-99.256;2023-01-26T12:30:34;78041.63;;;22.30;33.15
20955;BME280;10636;19.390;-99.256;2023-01-26T12:33:08;78043.50;;;22.27;32.93
20955;BME280;10636;19.390;-99.256;2023-01-26T12:36:03;78040.03;;;22.25;32.94
20955;BME280;10636;19.390;-99.256;2023-01-26T12:38:46;78049.34;;;22.24;32.95
20955;BME280;10636;19.390;-99.256;2023-01-26T12:41:30;78057.16;;;22.19;33.29
20955;BME280;10636;19.390;-99.256;2023-01-26T12:44:17;78047.78;;;22.18;32.47
20955;BME280;10636;19.390;-99.256;2023-01-26T12:46:52;78058.25;;;22.14;32.92
20955;BME280;10636;19.390;-99.256;2023-01-26T12:49:25;78064.19;;;22.13;32.43
20955;BME280;10636;19.390;-99.256;2023-01-26T12:51:59;78062.13;;;22.11;32.36
20955;BME280;10636;19.390;-99.256;2023-01-26T12:54:37;78071.31;;;22.08;32.63
20955;BME280;10636;19.390;-99.256;2023-01-26T12:57:12;78069.22;;;22.07;32.46
20955;BME280;10636;19.390;-99.256;2023-01-26T12:59:45;78073.88;;;22.06;32.47
20955;BME280;10636;19.390;-99.256;2023-01-26T13:02:26;78077.84;;;22.05;32.57
20955;BME280;10636;19.390;-99.256;2023-01-26T13:04:57;78081.22;;;22.06;32.27
20955;BME280;10636;19.390;-99.256;2023-01-26T13:07:29;78081.09;;;22.04;32.71
20955;BME280;10636;19.390;-99.256;2023-01-26T13:10:20;78080.41;;;22.03;32.84
20955;BME280;10636;19.390;-99.256;2023-01-26T13:12:50;78079.03;;;22.02;32.90
20955;BME280;10636;19.390;-99.256;2023-01-26T13:15:22;78059.34;;;21.82;32.81
20955;BME280;10636;19.390;-99.256;2023-01-26T13:17:56;78085.56;;;21.99;33.06
20955;BME280;10636;19.390;-99.256;2023-01-26T13:23:37;78093.47;;;21.97;32.73
20955;BME280;10636;19.390;-99.256;2023-01-26T13:26:18;78092.00;;;21.94;32.79